Anchorage, AK (99501)

5:44 PM AKDT on April 26, 2017 (GMT -0800)
Government Hill | | Change Station

Elev 94 ft 61.23 °N, 149.89 °W | Updated 14 minutes ago

Scattered Clouds
Scattered Clouds
49.4 °F
Feels Like 49 °F
N
3.0
Wind Variable Wind from WSW
Gusts 4.0 mph

Today
High -- | Low -- °F
--% Chance of Precip.
Yesterday
High -- | Low -- °F
Precip. -- in
Pressure 29.51 in
Visibility 10.0 miles
Clouds Few 4500 ft
Scattered Clouds 5500 ft
Windchill 49 °F
Dew Point 39 °F
Humidity 68%
Rainfall 0.00 in
Snow Depth Not available.
6:03 AM 9:52 PM
New Moon, 0% visible
METAR PAMR 262353Z 28008KT 10SM FEW045 SCT055 12/02 A2950 RMK AO2 SLP991 T01220022 10122 20078 56004
Pressure 29.51 in
Visibility 10.0 miles
Clouds Few 4500 ft
Scattered Clouds 5500 ft
Windchill 49 °F
Dew Point 39 °F
Humidity 68%
Rainfall 0.00 in
Snow Depth Not available.
6:03 AM 9:52 PM
New Moon, 0% visible
METAR PAMR 262353Z 28008KT 10SM FEW045 SCT055 12/02 A2950 RMK AO2 SLP991 T01220022 10122 20078 56004

Get Severe Weather Alerts

Thanks for signing up!

Be on the lookout for a verification email in your inbox.

You'll start receiving the daily forecast at 8 AM.

×

10-Day Weather Forecast

Almanac

Astronomy

Apr. 26, 2017 Rise Set
Actual Time
Civil Twilight
Nautical Twilight
Astronomical Twilight
Moon
Length of Visible Light
Length of Day
Tomorrow will be .
, % of the Moon is Illuminated

Today's Extremes

State Highs State Lows

Community

WunderPhotos

WunderBlog® & News

Nearby

Air Quality

  Air Quality AQ Index Pollutant
Not available.

Snow Depth

Station Depth Elevation

Earthquake Activity

City Distance Mag. Time & Date
Minimum magnitude displayed is 2.5.

Coastal Water Temperatures

Place Temperature

Stations

Nearby Weather Stations

Station Location Temp. Windchill Dew Point Humidity Wind Precip. Elev Updated Type
                   

Watches & Warnings

There are currently no watches in effect.